<?xml version="1.0" encoding="UTF-8" standalone="no" ?>
<gpx xmlns="http://www.topografix.com/GPX/1/1" xmlns:xsi="http://www.w3.org/2001/XMLSchema-instance" xsi:schemaLocation="http://www.topografix.com/GPX/1/1 http://www.topografix.com/GPX/1/1/gpx.xsd" version="1.1" creator="VisuGPX - https://www.visugpx.com">
  <metadata>
    <name>boucle d\'entre 2 pertuis par le lac des plagnes</name>
    <desc><![CDATA[depart lac des plagnes, remontée par le fenetre d\'Ardent, traversée sous le chatelard pour remonter en peau a la cime du piron par la face sud, puis traversée en crampon sur l\'arete pour rejoindre la pointe d\'entre deux pertuis. Descente sud estjusqu a 1600m puis remontée au col de tavaneuse parles chalets de lens. Sommet de tavaneuse descente combe nord est jusqu aux chalets de tavaneuse puis retour au lac des plagnes par les Pirons d\'Ardent.]]></desc>
  </metadata>
  <trk>
    <name><![CDATA[boucle d\'entre 2 pertuis par le lac des plagnes_1]]></name>
    <trkseg>
      <trkpt lat="46.24141" lon="6.75045">
        <ele>1256</ele>
        <time>2013-03-16T07:54:47.509Z</time>
      </trkpt>
      <trkpt lat="46.2414" lon="6.75025">
        <ele>1248</ele>
        <time>2013-03-16T07:54:58.503Z</time>
      </trkpt>
      <trkpt lat="46.24123" lon="6.74976">
        <ele>1248</ele>
        <time>2013-03-16T07:55:19.485Z</time>
      </trkpt>
      <trkpt lat="46.24106" lon="6.74959">
        <ele>1244</ele>
        <time>2013-03-16T07:55:42.511Z</time>
      </trkpt>
      <trkpt lat="46.24084" lon="6.74939">
        <ele>1257</ele>
        <time>2013-03-16T07:56:06.51Z</time>
      </trkpt>
      <trkpt lat="46.24065" lon="6.74929">
        <ele>1258</ele>
        <time>2013-03-16T07:56:27.504Z</time>
      </trkpt>
      <trkpt lat="46.24051" lon="6.74923">
        <ele>1258</ele>
        <time>2013-03-16T07:56:35.508Z</time>
      </trkpt>
      <trkpt lat="46.24033" lon="6.74916">
        <ele>1262</ele>
        <time>2013-03-16T07:56:47.54Z</time>
      </trkpt>
      <trkpt lat="46.24021" lon="6.74909">
        <ele>1264</ele>
        <time>2013-03-16T07:57:03.531Z</time>
      </trkpt>
      <trkpt lat="46.24006" lon="6.74908">
        <ele>1269</ele>
        <time>2013-03-16T07:57:20.506Z</time>
      </trkpt>
      <trkpt lat="46.23976" lon="6.74899">
        <ele>1277</ele>
        <time>2013-03-16T07:57:50.52Z</time>
      </trkpt>
      <trkpt lat="46.23965" lon="6.74887">
        <ele>1272</ele>
        <time>2013-03-16T07:58:10.516Z</time>
      </trkpt>
      <trkpt lat="46.23945" lon="6.74865">
        <ele>1277</ele>
        <time>2013-03-16T07:58:33.519Z</time>
      </trkpt>
      <trkpt lat="46.23912" lon="6.74852">
        <ele>1285</ele>
        <time>2013-03-16T07:59:33.528Z</time>
      </trkpt>
      <trkpt lat="46.23874" lon="6.74835">
        <ele>1294</ele>
        <time>2013-03-16T08:00:11.528Z</time>
      </trkpt>
      <trkpt lat="46.23839" lon="6.74835">
        <ele>1303</ele>
        <time>2013-03-16T08:00:56.55Z</time>
      </trkpt>
      <trkpt lat="46.23816" lon="6.7484">
        <ele>1303</ele>
        <time>2013-03-16T08:01:33.544Z</time>
      </trkpt>
      <trkpt lat="46.23783" lon="6.74869">
        <ele>1314</ele>
        <time>2013-03-16T08:02:33.549Z</time>
      </trkpt>
      <trkpt lat="46.23756" lon="6.74867">
        <ele>1316</ele>
        <time>2013-03-16T08:03:07.545Z</time>
      </trkpt>
      <trkpt lat="46.23729" lon="6.74881">
        <ele>1317</ele>
        <time>2013-03-16T08:04:07.58Z</time>
      </trkpt>
      <trkpt lat="46.23729" lon="6.74874">
        <ele>1317</ele>
        <time>2013-03-16T08:06:08.574Z</time>
      </trkpt>
      <trkpt lat="46.23729" lon="6.74867">
        <ele>1327</ele>
        <time>2013-03-16T08:08:08.584Z</time>
      </trkpt>
      <trkpt lat="46.23742" lon="6.74846">
        <ele>1325</ele>
        <time>2013-03-16T08:08:31.52Z</time>
      </trkpt>
      <trkpt lat="46.2374" lon="6.74826">
        <ele>1331</ele>
        <time>2013-03-16T08:08:46.565Z</time>
      </trkpt>
      <trkpt lat="46.23725" lon="6.74806">
        <ele>1326</ele>
        <time>2013-03-16T08:09:01.593Z</time>
      </trkpt>
      <trkpt lat="46.23709" lon="6.7478">
        <ele>1314</ele>
        <time>2013-03-16T08:09:21.55Z</time>
      </trkpt>
      <trkpt lat="46.23696" lon="6.74763">
        <ele>1309</ele>
        <time>2013-03-16T08:09:37.574Z</time>
      </trkpt>
      <trkpt lat="46.23685" lon="6.74743">
        <ele>1312</ele>
        <time>2013-03-16T08:09:50.576Z</time>
      </trkpt>
      <trkpt lat="46.23676" lon="6.74728">
        <ele>1315</ele>
        <time>2013-03-16T08:10:03.616Z</time>
      </trkpt>
      <trkpt lat="46.23657" lon="6.74698">
        <ele>1338</ele>
        <time>2013-03-16T08:10:38.635Z</time>
      </trkpt>
      <trkpt lat="46.2364" lon="6.74689">
        <ele>1337</ele>
        <time>2013-03-16T08:10:59.589Z</time>
      </trkpt>
      <trkpt lat="46.23629" lon="6.74674">
        <ele>1336</ele>
        <time>2013-03-16T08:11:11.595Z</time>
      </trkpt>
      <trkpt lat="46.23626" lon="6.74655">
        <ele>1338</ele>
        <time>2013-03-16T08:11:29.595Z</time>
      </trkpt>
      <trkpt lat="46.23598" lon="6.74604">
        <ele>1344</ele>
        <time>2013-03-16T08:12:29.606Z</time>
      </trkpt>
      <trkpt lat="46.23552" lon="6.7458">
        <ele>1355</ele>
        <time>2013-03-16T08:13:23.643Z</time>
      </trkpt>
      <trkpt lat="46.23525" lon="6.74565">
        <ele>1358</ele>
        <time>2013-03-16T08:14:08.555Z</time>
      </trkpt>
      <trkpt lat="46.23513" lon="6.74548">
        <ele>1352</ele>
        <time>2013-03-16T08:14:18.555Z</time>
      </trkpt>
      <trkpt lat="46.23505" lon="6.7453">
        <ele>1343</ele>
        <time>2013-03-16T08:14:44.596Z</time>
      </trkpt>
      <trkpt lat="46.23484" lon="6.74524">
        <ele>1364</ele>
        <time>2013-03-16T08:15:13.59Z</time>
      </trkpt>
      <trkpt lat="46.23473" lon="6.7451">
        <ele>1363</ele>
        <time>2013-03-16T08:15:22.588Z</time>
      </trkpt>
      <trkpt lat="46.2347" lon="6.74531">
        <ele>1368</ele>
        <time>2013-03-16T08:15:35.585Z</time>
      </trkpt>
      <trkpt lat="46.23456" lon="6.74524">
        <ele>1373</ele>
        <time>2013-03-16T08:15:50.589Z</time>
      </trkpt>
      <trkpt lat="46.23424" lon="6.74541">
        <ele>1389</ele>
        <time>2013-03-16T08:16:50.614Z</time>
      </trkpt>
      <trkpt lat="46.23384" lon="6.74509">
        <ele>1404</ele>
        <time>2013-03-16T08:18:31.653Z</time>
      </trkpt>
      <trkpt lat="46.23368" lon="6.74497">
        <ele>1418</ele>
        <time>2013-03-16T08:18:59.554Z</time>
      </trkpt>
      <trkpt lat="46.23346" lon="6.74466">
        <ele>1430</ele>
        <time>2013-03-16T08:19:59.621Z</time>
      </trkpt>
      <trkpt lat="46.23308" lon="6.74431">
        <ele>1451</ele>
        <time>2013-03-16T08:21:28.58Z</time>
      </trkpt>
      <trkpt lat="46.23285" lon="6.74421">
        <ele>1473</ele>
        <time>2013-03-16T08:22:28.58Z</time>
      </trkpt>
      <trkpt lat="46.23241" lon="6.74438">
        <ele>1490</ele>
        <time>2013-03-16T08:23:58.573Z</time>
      </trkpt>
      <trkpt lat="46.23227" lon="6.74434">
        <ele>1490</ele>
        <time>2013-03-16T08:24:12.578Z</time>
      </trkpt>
      <trkpt lat="46.23229" lon="6.74413">
        <ele>1489</ele>
        <time>2013-03-16T08:24:26.59Z</time>
      </trkpt>
      <trkpt lat="46.23216" lon="6.74409">
        <ele>1486</ele>
        <time>2013-03-16T08:24:37.59Z</time>
      </trkpt>
      <trkpt lat="46.23197" lon="6.74379">
        <ele>1508</ele>
        <time>2013-03-16T08:25:37.629Z</time>
      </trkpt>
      <trkpt lat="46.23182" lon="6.74386">
        <ele>1516</ele>
        <time>2013-03-16T08:26:21.566Z</time>
      </trkpt>
      <trkpt lat="46.23169" lon="6.74328">
        <ele>1528</ele>
        <time>2013-03-16T08:27:21.649Z</time>
      </trkpt>
      <trkpt lat="46.2316" lon="6.74344">
        <ele>1535</ele>
        <time>2013-03-16T08:27:42.58Z</time>
      </trkpt>
      <trkpt lat="46.2314" lon="6.74347">
        <ele>1551</ele>
        <time>2013-03-16T08:28:42.618Z</time>
      </trkpt>
      <trkpt lat="46.23107" lon="6.74317">
        <ele>1557</ele>
        <time>2013-03-16T08:29:42.611Z</time>
      </trkpt>
      <trkpt lat="46.23101" lon="6.74305">
        <ele>1572</ele>
        <time>2013-03-16T08:30:42.611Z</time>
      </trkpt>
      <trkpt lat="46.23071" lon="6.74255">
        <ele>1583</ele>
        <time>2013-03-16T08:31:32.626Z</time>
      </trkpt>
      <trkpt lat="46.23069" lon="6.74233">
        <ele>1583</ele>
        <time>2013-03-16T08:31:45.63Z</time>
      </trkpt>
      <trkpt lat="46.23053" lon="6.74201">
        <ele>1605</ele>
        <time>2013-03-16T08:32:25.625Z</time>
      </trkpt>
      <trkpt lat="46.23028" lon="6.74156">
        <ele>1620</ele>
        <time>2013-03-16T08:33:25.648Z</time>
      </trkpt>
      <trkpt lat="46.22989" lon="6.74121">
        <ele>1633</ele>
        <time>2013-03-16T08:34:41.64Z</time>
      </trkpt>
      <trkpt lat="46.22972" lon="6.74115">
        <ele>1639</ele>
        <time>2013-03-16T08:34:56.64Z</time>
      </trkpt>
      <trkpt lat="46.22934" lon="6.7409">
        <ele>1646</ele>
        <time>2013-03-16T08:35:56.64Z</time>
      </trkpt>
      <trkpt lat="46.22897" lon="6.74051">
        <ele>1647</ele>
        <time>2013-03-16T08:37:17.639Z</time>
      </trkpt>
      <trkpt lat="46.22884" lon="6.7404">
        <ele>1647</ele>
        <time>2013-03-16T08:37:29.639Z</time>
      </trkpt>
      <trkpt lat="46.22868" lon="6.73982">
        <ele>1657</ele>
        <time>2013-03-16T08:38:29.644Z</time>
      </trkpt>
      <trkpt lat="46.22859" lon="6.73998">
        <ele>1661</ele>
        <time>2013-03-16T08:38:48.638Z</time>
      </trkpt>
      <trkpt lat="46.22851" lon="6.74016">
        <ele>1667</ele>
        <time>2013-03-16T08:39:05.641Z</time>
      </trkpt>
      <trkpt lat="46.22825" lon="6.74044">
        <ele>1684</ele>
        <time>2013-03-16T08:40:06.64Z</time>
      </trkpt>
      <trkpt lat="46.22813" lon="6.73979">
        <ele>1701</ele>
        <time>2013-03-16T08:41:58.638Z</time>
      </trkpt>
      <trkpt lat="46.22811" lon="6.73938">
        <ele>1710</ele>
        <time>2013-03-16T08:42:58.644Z</time>
      </trkpt>
      <trkpt lat="46.22794" lon="6.7394">
        <ele>1743</ele>
        <time>2013-03-16T08:44:05.638Z</time>
      </trkpt>
      <trkpt lat="46.22789" lon="6.73952">
        <ele>1763</ele>
        <time>2013-03-16T08:45:05.639Z</time>
      </trkpt>
      <trkpt lat="46.22772" lon="6.73921">
        <ele>1781</ele>
        <time>2013-03-16T08:47:05.645Z</time>
      </trkpt>
      <trkpt lat="46.22767" lon="6.73887">
        <ele>1804</ele>
        <time>2013-03-16T08:48:49.639Z</time>
      </trkpt>
      <trkpt lat="46.2275" lon="6.73889">
        <ele>1810</ele>
        <time>2013-03-16T08:49:24.639Z</time>
      </trkpt>
      <trkpt lat="46.22755" lon="6.73864">
        <ele>1817</ele>
        <time>2013-03-16T08:50:25.243Z</time>
      </trkpt>
      <trkpt lat="46.22763" lon="6.73858">
        <ele>1828</ele>
        <time>2013-03-16T08:52:26.239Z</time>
      </trkpt>
      <trkpt lat="46.2274" lon="6.7388">
        <ele>1831</ele>
        <time>2013-03-16T08:52:41.24Z</time>
      </trkpt>
      <trkpt lat="46.2274" lon="6.73881">
        <ele>1839</ele>
        <time>2013-03-16T08:53:42.239Z</time>
      </trkpt>
      <trkpt lat="46.22743" lon="6.73872">
        <ele>1843</ele>
        <time>2013-03-16T08:55:42.24Z</time>
      </trkpt>
      <trkpt lat="46.22735" lon="6.73849">
        <ele>1850</ele>
        <time>2013-03-16T08:57:42.241Z</time>
      </trkpt>
      <trkpt lat="46.22737" lon="6.73815">
        <ele>1865</ele>
        <time>2013-03-16T08:59:43.238Z</time>
      </trkpt>
      <trkpt lat="46.2273" lon="6.7382">
        <ele>1880</ele>
        <time>2013-03-16T09:01:43.243Z</time>
      </trkpt>
      <trkpt lat="46.22727" lon="6.73824">
        <ele>1881</ele>
        <time>2013-03-16T09:03:44.243Z</time>
      </trkpt>
      <trkpt lat="46.22722" lon="6.73811">
        <ele>1891</ele>
        <time>2013-03-16T09:05:45.238Z</time>
      </trkpt>
      <trkpt lat="46.22722" lon="6.73806">
        <ele>1893</ele>
        <time>2013-03-16T09:07:45.244Z</time>
      </trkpt>
      <trkpt lat="46.22723" lon="6.73804">
        <ele>1898</ele>
        <time>2013-03-16T09:09:45.244Z</time>
      </trkpt>
      <trkpt lat="46.22724" lon="6.73805">
        <ele>1899</ele>
        <time>2013-03-16T09:11:45.245Z</time>
      </trkpt>
      <trkpt lat="46.22724" lon="6.7381">
        <ele>1899</ele>
        <time>2013-03-16T09:13:45.316Z</time>
      </trkpt>
      <trkpt lat="46.22724" lon="6.73808">
        <ele>1892</ele>
        <time>2013-03-16T09:15:45.316Z</time>
      </trkpt>
      <trkpt lat="46.2272" lon="6.73815">
        <ele>1906</ele>
        <time>2013-03-16T09:17:46.31Z</time>
      </trkpt>
      <trkpt lat="46.2272" lon="6.73812">
        <ele>1902</ele>
        <time>2013-03-16T09:19:46.314Z</time>
      </trkpt>
      <trkpt lat="46.22722" lon="6.73812">
        <ele>1901</ele>
        <time>2013-03-16T09:21:46.316Z</time>
      </trkpt>
      <trkpt lat="46.22721" lon="6.73806">
        <ele>1897</ele>
        <time>2013-03-16T09:23:47.31Z</time>
      </trkpt>
      <trkpt lat="46.22723" lon="6.73806">
        <ele>1890</ele>
        <time>2013-03-16T09:25:48.308Z</time>
      </trkpt>
      <trkpt lat="46.22721" lon="6.7381">
        <ele>1891</ele>
        <time>2013-03-16T09:27:48.308Z</time>
      </trkpt>
      <trkpt lat="46.22721" lon="6.73808">
        <ele>1890</ele>
        <time>2013-03-16T09:29:48.31Z</time>
      </trkpt>
      <trkpt lat="46.22722" lon="6.73813">
        <ele>1899</ele>
        <time>2013-03-16T09:31:48.965Z</time>
      </trkpt>
      <trkpt lat="46.22719" lon="6.7381">
        <ele>1895</ele>
        <time>2013-03-16T09:33:48.966Z</time>
      </trkpt>
      <trkpt lat="46.2272" lon="6.73812">
        <ele>1892</ele>
        <time>2013-03-16T09:35:49.965Z</time>
      </trkpt>
      <trkpt lat="46.22721" lon="6.73811">
        <ele>1891</ele>
        <time>2013-03-16T09:37:49.968Z</time>
      </trkpt>
      <trkpt lat="46.22722" lon="6.73811">
        <ele>1899</ele>
        <time>2013-03-16T09:39:50.979Z</time>
      </trkpt>
      <trkpt lat="46.22709" lon="6.7378">
        <ele>1891</ele>
        <time>2013-03-16T09:41:37.96Z</time>
      </trkpt>
      <trkpt lat="46.227" lon="6.73763">
        <ele>1884</ele>
        <time>2013-03-16T09:41:58.96Z</time>
      </trkpt>
      <trkpt lat="46.22692" lon="6.73746">
        <ele>1876</ele>
        <time>2013-03-16T09:42:13.96Z</time>
      </trkpt>
      <trkpt lat="46.22663" lon="6.73694">
        <ele>1881</ele>
        <time>2013-03-16T09:43:00.96Z</time>
      </trkpt>
      <trkpt lat="46.22641" lon="6.73637">
        <ele>1874</ele>
        <time>2013-03-16T09:43:39.976Z</time>
      </trkpt>
      <trkpt lat="46.22647" lon="6.73567">
        <ele>1882</ele>
        <time>2013-03-16T09:44:31.958Z</time>
      </trkpt>
      <trkpt lat="46.22643" lon="6.73548">
        <ele>1884</ele>
        <time>2013-03-16T09:44:45.958Z</time>
      </trkpt>
      <trkpt lat="46.22654" lon="6.73494">
        <ele>1885</ele>
        <time>2013-03-16T09:45:45.996Z</time>
      </trkpt>
      <trkpt lat="46.22685" lon="6.73448">
        <ele>1873</ele>
        <time>2013-03-16T09:47:46.97Z</time>
      </trkpt>
      <trkpt lat="46.22692" lon="6.73422">
        <ele>1887</ele>
        <time>2013-03-16T09:48:17.956Z</time>
      </trkpt>
      <trkpt lat="46.22711" lon="6.7338">
        <ele>1881</ele>
        <time>2013-03-16T09:49:17.96Z</time>
      </trkpt>
      <trkpt lat="46.22718" lon="6.73372">
        <ele>1895</ele>
        <time>2013-03-16T09:51:17.961Z</time>
      </trkpt>
      <trkpt lat="46.22716" lon="6.73369">
        <ele>1904</ele>
        <time>2013-03-16T09:53:18.234Z</time>
      </trkpt>
      <trkpt lat="46.22717" lon="6.73361">
        <ele>1895</ele>
        <time>2013-03-16T09:55:19.235Z</time>
      </trkpt>
      <trkpt lat="46.22734" lon="6.73349">
        <ele>1893</ele>
        <time>2013-03-16T09:55:39.22Z</time>
      </trkpt>
      <trkpt lat="46.22768" lon="6.73315">
        <ele>1901</ele>
        <time>2013-03-16T09:56:39.225Z</time>
      </trkpt>
      <trkpt lat="46.22805" lon="6.73276">
        <ele>1910</ele>
        <time>2013-03-16T09:57:42.236Z</time>
      </trkpt>
      <trkpt lat="46.22839" lon="6.73238">
        <ele>1917</ele>
        <time>2013-03-16T09:58:43.223Z</time>
      </trkpt>
      <trkpt lat="46.22882" lon="6.73207">
        <ele>1932</ele>
        <time>2013-03-16T10:00:02.223Z</time>
      </trkpt>
      <trkpt lat="46.22895" lon="6.73164">
        <ele>1967</ele>
        <time>2013-03-16T10:01:03.221Z</time>
      </trkpt>
      <trkpt lat="46.22937" lon="6.73142">
        <ele>1984</ele>
        <time>2013-03-16T10:02:45.223Z</time>
      </trkpt>
      <trkpt lat="46.22964" lon="6.73169">
        <ele>1988</ele>
        <time>2013-03-16T10:03:45.224Z</time>
      </trkpt>
      <trkpt lat="46.23008" lon="6.73151">
        <ele>2014</ele>
        <time>2013-03-16T10:05:26.224Z</time>
      </trkpt>
      <trkpt lat="46.23003" lon="6.73116">
        <ele>2032</ele>
        <time>2013-03-16T10:06:26.224Z</time>
      </trkpt>
      <trkpt lat="46.23026" lon="6.73085">
        <ele>2040</ele>
        <time>2013-03-16T10:07:31.228Z</time>
      </trkpt>
      <trkpt lat="46.23031" lon="6.73057">
        <ele>2053</ele>
        <time>2013-03-16T10:08:18.225Z</time>
      </trkpt>
      <trkpt lat="46.23059" lon="6.73083">
        <ele>2054</ele>
        <time>2013-03-16T10:09:19.225Z</time>
      </trkpt>
      <trkpt lat="46.23046" lon="6.7307">
        <ele>2070</ele>
        <time>2013-03-16T10:11:19.225Z</time>
      </trkpt>
      <trkpt lat="46.23044" lon="6.73051">
        <ele>2068</ele>
        <time>2013-03-16T10:11:41.225Z</time>
      </trkpt>
      <trkpt lat="46.23035" lon="6.73034">
        <ele>2066</ele>
        <time>2013-03-16T10:11:51.225Z</time>
      </trkpt>
      <trkpt lat="46.23048" lon="6.73028">
        <ele>2065</ele>
        <time>2013-03-16T10:12:10.223Z</time>
      </trkpt>
      <trkpt lat="46.23076" lon="6.73062">
        <ele>2067</ele>
        <time>2013-03-16T10:13:10.224Z</time>
      </trkpt>
      <trkpt lat="46.23078" lon="6.73035">
        <ele>2080</ele>
        <time>2013-03-16T10:15:08.223Z</time>
      </trkpt>
      <trkpt lat="46.23086" lon="6.73058">
        <ele>2088</ele>
        <time>2013-03-16T10:15:39.225Z</time>
      </trkpt>
      <trkpt lat="46.23081" lon="6.73081">
        <ele>2106</ele>
        <time>2013-03-16T10:16:39.229Z</time>
      </trkpt>
      <trkpt lat="46.23098" lon="6.73053">
        <ele>2110</ele>
        <time>2013-03-16T10:18:39.229Z</time>
      </trkpt>
      <trkpt lat="46.23113" lon="6.73075">
        <ele>2124</ele>
        <time>2013-03-16T10:20:40.23Z</time>
      </trkpt>
      <trkpt lat="46.23129" lon="6.73081">
        <ele>2116</ele>
        <time>2013-03-16T10:20:50.228Z</time>
      </trkpt>
      <trkpt lat="46.2314" lon="6.73096">
        <ele>2133</ele>
        <time>2013-03-16T10:21:51.226Z</time>
      </trkpt>
      <trkpt lat="46.23145" lon="6.73057">
        <ele>2154</ele>
        <time>2013-03-16T10:23:51.233Z</time>
      </trkpt>
      <trkpt lat="46.2315" lon="6.73024">
        <ele>2164</ele>
        <time>2013-03-16T10:40:24.246Z</time>
      </trkpt>
      <trkpt lat="46.23146" lon="6.73029">
        <ele>2171</ele>
        <time>2013-03-16T10:42:24.82Z</time>
      </trkpt>
      <trkpt lat="46.23149" lon="6.73028">
        <ele>2168</ele>
        <time>2013-03-16T10:44:25.806Z</time>
      </trkpt>
      <trkpt lat="46.23149" lon="6.73025">
        <ele>2166</ele>
        <time>2013-03-16T10:46:26.804Z</time>
      </trkpt>
      <trkpt lat="46.23147" lon="6.73025">
        <ele>2165</ele>
        <time>2013-03-16T10:48:26.806Z</time>
      </trkpt>
      <trkpt lat="46.23151" lon="6.73028">
        <ele>2165</ele>
        <time>2013-03-16T10:50:26.809Z</time>
      </trkpt>
      <trkpt lat="46.23145" lon="6.73024">
        <ele>2164</ele>
        <time>2013-03-16T10:52:27.79Z</time>
      </trkpt>
      <trkpt lat="46.23149" lon="6.73025">
        <ele>2169</ele>
        <time>2013-03-16T10:54:27.798Z</time>
      </trkpt>
      <trkpt lat="46.23186" lon="6.73015">
        <ele>2138</ele>
        <time>2013-03-16T10:56:28.789Z</time>
      </trkpt>
      <trkpt lat="46.23195" lon="6.73013">
        <ele>2158</ele>
        <time>2013-03-16T10:58:28.795Z</time>
      </trkpt>
      <trkpt lat="46.23189" lon="6.73008">
        <ele>2153</ele>
        <time>2013-03-16T11:00:29.786Z</time>
      </trkpt>
      <trkpt lat="46.23202" lon="6.73011">
        <ele>2143</ele>
        <time>2013-03-16T11:00:37.785Z</time>
      </trkpt>
      <trkpt lat="46.23227" lon="6.7301">
        <ele>2143</ele>
        <time>2013-03-16T11:01:37.785Z</time>
      </trkpt>
      <trkpt lat="46.23266" lon="6.73007">
        <ele>2145</ele>
        <time>2013-03-16T11:03:37.786Z</time>
      </trkpt>
      <trkpt lat="46.23306" lon="6.73008">
        <ele>2162</ele>
        <time>2013-03-16T11:05:37.795Z</time>
      </trkpt>
      <trkpt lat="46.23328" lon="6.72998">
        <ele>2177</ele>
        <time>2013-03-16T11:06:53.784Z</time>
      </trkpt>
      <trkpt lat="46.23347" lon="6.7297">
        <ele>2175</ele>
        <time>2013-03-16T11:07:53.79Z</time>
      </trkpt>
      <trkpt lat="46.23367" lon="6.72936">
        <ele>2160</ele>
        <time>2013-03-16T11:09:29.786Z</time>
      </trkpt>
      <trkpt lat="46.23379" lon="6.72913">
        <ele>2161</ele>
        <time>2013-03-16T11:10:29.79Z</time>
      </trkpt>
      <trkpt lat="46.23379" lon="6.72911">
        <ele>2160</ele>
        <time>2013-03-16T11:12:29.79Z</time>
      </trkpt>
      <trkpt lat="46.23378" lon="6.72909">
        <ele>2156</ele>
        <time>2013-03-16T11:14:30.378Z</time>
      </trkpt>
      <trkpt lat="46.23377" lon="6.72908">
        <ele>2157</ele>
        <time>2013-03-16T11:16:31.375Z</time>
      </trkpt>
      <trkpt lat="46.23377" lon="6.72909">
        <ele>2155</ele>
        <time>2013-03-16T11:18:31.388Z</time>
      </trkpt>
      <trkpt lat="46.23375" lon="6.72914">
        <ele>2156</ele>
        <time>2013-03-16T11:20:31.388Z</time>
      </trkpt>
      <trkpt lat="46.23411" lon="6.72884">
        <ele>2169</ele>
        <time>2013-03-16T11:22:32.371Z</time>
      </trkpt>
      <trkpt lat="46.23405" lon="6.72883">
        <ele>2170</ele>
        <time>2013-03-16T11:24:32.376Z</time>
      </trkpt>
      <trkpt lat="46.23409" lon="6.72885">
        <ele>2168</ele>
        <time>2013-03-16T11:26:33.388Z</time>
      </trkpt>
      <trkpt lat="46.2341" lon="6.72883">
        <ele>2171</ele>
        <time>2013-03-16T11:28:34.388Z</time>
      </trkpt>
      <trkpt lat="46.23408" lon="6.72883">
        <ele>2171</ele>
        <time>2013-03-16T11:30:35.383Z</time>
      </trkpt>
      <trkpt lat="46.23407" lon="6.72884">
        <ele>2168</ele>
        <time>2013-03-16T11:32:35.383Z</time>
      </trkpt>
      <trkpt lat="46.23404" lon="6.72863">
        <ele>2168</ele>
        <time>2013-03-16T11:34:24.381Z</time>
      </trkpt>
      <trkpt lat="46.23391" lon="6.72851">
        <ele>2152</ele>
        <time>2013-03-16T11:34:57.379Z</time>
      </trkpt>
      <trkpt lat="46.23376" lon="6.72851">
        <ele>2147</ele>
        <time>2013-03-16T11:35:06.379Z</time>
      </trkpt>
      <trkpt lat="46.23368" lon="6.72832">
        <ele>2139</ele>
        <time>2013-03-16T11:36:06.39Z</time>
      </trkpt>
      <trkpt lat="46.23351" lon="6.72825">
        <ele>2126</ele>
        <time>2013-03-16T11:36:43.37Z</time>
      </trkpt>
      <trkpt lat="46.23318" lon="6.72859">
        <ele>2122</ele>
        <time>2013-03-16T11:36:51.378Z</time>
      </trkpt>
      <trkpt lat="46.233" lon="6.72862">
        <ele>2115</ele>
        <time>2013-03-16T11:36:54.379Z</time>
      </trkpt>
      <trkpt lat="46.23264" lon="6.72861">
        <ele>2105</ele>
        <time>2013-03-16T11:36:59.378Z</time>
      </trkpt>
      <trkpt lat="46.23248" lon="6.72857">
        <ele>2100</ele>
        <time>2013-03-16T11:37:02.376Z</time>
      </trkpt>
      <trkpt lat="46.23235" lon="6.72841">
        <ele>2083</ele>
        <time>2013-03-16T11:37:14.375Z</time>
      </trkpt>
      <trkpt lat="46.23212" lon="6.72824">
        <ele>2076</ele>
        <time>2013-03-16T11:37:20.386Z</time>
      </trkpt>
      <trkpt lat="46.23197" lon="6.72822">
        <ele>2072</ele>
        <time>2013-03-16T11:37:26.368Z</time>
      </trkpt>
      <trkpt lat="46.23194" lon="6.72823">
        <ele>2076</ele>
        <time>2013-03-16T11:38:26.376Z</time>
      </trkpt>
      <trkpt lat="46.23181" lon="6.72826">
        <ele>2075</ele>
        <time>2013-03-16T11:39:42.374Z</time>
      </trkpt>
      <trkpt lat="46.23165" lon="6.72828">
        <ele>2073</ele>
        <time>2013-03-16T11:39:46.384Z</time>
      </trkpt>
      <trkpt lat="46.23151" lon="6.72813">
        <ele>2068</ele>
        <time>2013-03-16T11:39:50.374Z</time>
      </trkpt>
      <trkpt lat="46.23138" lon="6.72817">
        <ele>2065</ele>
        <time>2013-03-16T11:39:53.413Z</time>
      </trkpt>
      <trkpt lat="46.23125" lon="6.72801">
        <ele>2058</ele>
        <time>2013-03-16T11:39:57.374Z</time>
      </trkpt>
      <trkpt lat="46.23116" lon="6.72794">
        <ele>2035</ele>
        <time>2013-03-16T11:40:57.418Z</time>
      </trkpt>
      <trkpt lat="46.23083" lon="6.72787">
        <ele>2022</ele>
        <time>2013-03-16T11:41:17.374Z</time>
      </trkpt>
      <trkpt lat="46.23046" lon="6.72791">
        <ele>2023</ele>
        <time>2013-03-16T11:42:06.373Z</time>
      </trkpt>
      <trkpt lat="46.23032" lon="6.72791">
        <ele>2019</ele>
        <time>2013-03-16T11:42:12.375Z</time>
      </trkpt>
      <trkpt lat="46.23018" lon="6.72776">
        <ele>2015</ele>
        <time>2013-03-16T11:42:15.373Z</time>
      </trkpt>
      <trkpt lat="46.22984" lon="6.72743">
        <ele>2005</ele>
        <time>2013-03-16T11:42:21.375Z</time>
      </trkpt>
      <trkpt lat="46.22974" lon="6.7273">
        <ele>1998</ele>
        <time>2013-03-16T11:42:25.374Z</time>
      </trkpt>
      <trkpt lat="46.22979" lon="6.72728">
        <ele>2003</ele>
        <time>2013-03-16T11:43:25.374Z</time>
      </trkpt>
      <trkpt lat="46.22932" lon="6.72673">
        <ele>1982</ele>
        <time>2013-03-16T11:45:18.371Z</time>
      </trkpt>
      <trkpt lat="46.22863" lon="6.72529">
        <ele>1956</ele>
        <time>2013-03-16T11:45:33.37Z</time>
      </trkpt>
      <trkpt lat="46.22853" lon="6.72509">
        <ele>1953</ele>
        <time>2013-03-16T11:45:36.37Z</time>
      </trkpt>
      <trkpt lat="46.22827" lon="6.72466">
        <ele>1942</ele>
        <time>2013-03-16T11:45:42.37Z</time>
      </trkpt>
      <trkpt lat="46.22795" lon="6.72424">
        <ele>1930</ele>
        <time>2013-03-16T11:45:48.37Z</time>
      </trkpt>
      <trkpt lat="46.22784" lon="6.72408">
        <ele>1926</ele>
        <time>2013-03-16T11:45:50.37Z</time>
      </trkpt>
      <trkpt lat="46.22765" lon="6.72402">
        <ele>1921</ele>
        <time>2013-03-16T11:45:52.37Z</time>
      </trkpt>
      <trkpt lat="46.22756" lon="6.72416">
        <ele>1911</ele>
        <time>2013-03-16T11:46:52.375Z</time>
      </trkpt>
      <trkpt lat="46.22742" lon="6.72404">
        <ele>1894</ele>
        <time>2013-03-16T11:47:01.37Z</time>
      </trkpt>
      <trkpt lat="46.2272" lon="6.72382">
        <ele>1886</ele>
        <time>2013-03-16T11:47:05.41Z</time>
      </trkpt>
      <trkpt lat="46.2271" lon="6.72357">
        <ele>1878</ele>
        <time>2013-03-16T11:47:08.37Z</time>
      </trkpt>
      <trkpt lat="46.22704" lon="6.72326">
        <ele>1871</ele>
        <time>2013-03-16T11:47:12.378Z</time>
      </trkpt>
      <trkpt lat="46.2269" lon="6.72302">
        <ele>1866</ele>
        <time>2013-03-16T11:47:15.37Z</time>
      </trkpt>
      <trkpt lat="46.22672" lon="6.7229">
        <ele>1862</ele>
        <time>2013-03-16T11:47:17.371Z</time>
      </trkpt>
      <trkpt lat="46.22587" lon="6.72202">
        <ele>1837</ele>
        <time>2013-03-16T11:47:31.37Z</time>
      </trkpt>
      <trkpt lat="46.22569" lon="6.72199">
        <ele>1820</ele>
        <time>2013-03-16T11:48:03.37Z</time>
      </trkpt>
      <trkpt lat="46.22559" lon="6.72176">
        <ele>1811</ele>
        <time>2013-03-16T11:48:07.373Z</time>
      </trkpt>
      <trkpt lat="46.22549" lon="6.72146">
        <ele>1807</ele>
        <time>2013-03-16T11:48:10.371Z</time>
      </trkpt>
      <trkpt lat="46.22539" lon="6.72132">
        <ele>1804</ele>
        <time>2013-03-16T11:48:12.37Z</time>
      </trkpt>
      <trkpt lat="46.22433" lon="6.71993">
        <ele>1771</ele>
        <time>2013-03-16T11:48:30.371Z</time>
      </trkpt>
      <trkpt lat="46.22417" lon="6.71985">
        <ele>1769</ele>
        <time>2013-03-16T11:48:32.383Z</time>
      </trkpt>
      <trkpt lat="46.22397" lon="6.71989">
        <ele>1764</ele>
        <time>2013-03-16T11:48:34.374Z</time>
      </trkpt>
      <trkpt lat="46.22395" lon="6.72004">
        <ele>1745</ele>
        <time>2013-03-16T11:49:34.38Z</time>
      </trkpt>
      <trkpt lat="46.22388" lon="6.71988">
        <ele>1719</ele>
        <time>2013-03-16T11:50:11.375Z</time>
      </trkpt>
      <trkpt lat="46.22381" lon="6.71971">
        <ele>1716</ele>
        <time>2013-03-16T11:50:13.376Z</time>
      </trkpt>
      <trkpt lat="46.22368" lon="6.7195">
        <ele>1712</ele>
        <time>2013-03-16T11:50:15.375Z</time>
      </trkpt>
      <trkpt lat="46.22354" lon="6.71939">
        <ele>1710</ele>
        <time>2013-03-16T11:50:17.376Z</time>
      </trkpt>
      <trkpt lat="46.2234" lon="6.71938">
        <ele>1709</ele>
        <time>2013-03-16T11:50:19.376Z</time>
      </trkpt>
      <trkpt lat="46.22328" lon="6.71926">
        <ele>1701</ele>
        <time>2013-03-16T11:50:28.375Z</time>
      </trkpt>
      <trkpt lat="46.22309" lon="6.71922">
        <ele>1700</ele>
        <time>2013-03-16T11:50:32.376Z</time>
      </trkpt>
      <trkpt lat="46.22287" lon="6.71915">
        <ele>1695</ele>
        <time>2013-03-16T11:50:35.376Z</time>
      </trkpt>
      <trkpt lat="46.22244" lon="6.71902">
        <ele>1688</ele>
        <time>2013-03-16T11:50:40.39Z</time>
      </trkpt>
      <trkpt lat="46.22204" lon="6.71902">
        <ele>1678</ele>
        <time>2013-03-16T11:50:46.375Z</time>
      </trkpt>
      <trkpt lat="46.22181" lon="6.71897">
        <ele>1673</ele>
        <time>2013-03-16T11:50:49.38Z</time>
      </trkpt>
      <trkpt lat="46.22149" lon="6.71905">
        <ele>1666</ele>
        <time>2013-03-16T11:50:53.375Z</time>
      </trkpt>
      <trkpt lat="46.22124" lon="6.71922">
        <ele>1659</ele>
        <time>2013-03-16T11:50:58.376Z</time>
      </trkpt>
      <trkpt lat="46.2212" lon="6.71944">
        <ele>1656</ele>
        <time>2013-03-16T11:51:00.379Z</time>
      </trkpt>
      <trkpt lat="46.22108" lon="6.71955">
        <ele>1650</ele>
        <time>2013-03-16T11:51:03.375Z</time>
      </trkpt>
      <trkpt lat="46.22086" lon="6.71963">
        <ele>1645</ele>
        <time>2013-03-16T11:51:07.375Z</time>
      </trkpt>
      <trkpt lat="46.22047" lon="6.71987">
        <ele>1638</ele>
        <time>2013-03-16T11:51:13.375Z</time>
      </trkpt>
      <trkpt lat="46.22042" lon="6.7198">
        <ele>1627</ele>
        <time>2013-03-16T11:52:13.381Z</time>
      </trkpt>
      <trkpt lat="46.22046" lon="6.71988">
        <ele>1600</ele>
        <time>2013-03-16T11:54:13.385Z</time>
      </trkpt>
      <trkpt lat="46.22047" lon="6.7199">
        <ele>1592</ele>
        <time>2013-03-16T11:56:14.385Z</time>
      </trkpt>
      <trkpt lat="46.22046" lon="6.71993">
        <ele>1610</ele>
        <time>2013-03-16T11:58:15.38Z</time>
      </trkpt>
      <trkpt lat="46.22043" lon="6.72004">
        <ele>1598</ele>
        <time>2013-03-16T12:32:02.954Z</time>
      </trkpt>
      <trkpt lat="46.22049" lon="6.71992">
        <ele>1597</ele>
        <time>2013-03-16T12:34:02.961Z</time>
      </trkpt>
      <trkpt lat="46.2205" lon="6.71997">
        <ele>1597</ele>
        <time>2013-03-16T12:36:03.95Z</time>
      </trkpt>
      <trkpt lat="46.2205" lon="6.71999">
        <ele>1597</ele>
        <time>2013-03-16T12:38:03.955Z</time>
      </trkpt>
      <trkpt lat="46.22051" lon="6.72004">
        <ele>1591</ele>
        <time>2013-03-16T12:40:04.949Z</time>
      </trkpt>
      <trkpt lat="46.22047" lon="6.71995">
        <ele>1594</ele>
        <time>2013-03-16T12:42:04.951Z</time>
      </trkpt>
      <trkpt lat="46.22045" lon="6.71989">
        <ele>1600</ele>
        <time>2013-03-16T12:44:05.955Z</time>
      </trkpt>
      <trkpt lat="46.22089" lon="6.72005">
        <ele>1598</ele>
        <time>2013-03-16T12:45:21.955Z</time>
      </trkpt>
      <trkpt lat="46.22125" lon="6.71973">
        <ele>1610</ele>
        <time>2013-03-16T12:46:22.95Z</time>
      </trkpt>
      <trkpt lat="46.22171" lon="6.71953">
        <ele>1618</ele>
        <time>2013-03-16T12:47:28.948Z</time>
      </trkpt>
      <trkpt lat="46.22208" lon="6.71951">
        <ele>1638</ele>
        <time>2013-03-16T12:48:29.945Z</time>
      </trkpt>
      <trkpt lat="46.22243" lon="6.71909">
        <ele>1647</ele>
        <time>2013-03-16T12:49:36.946Z</time>
      </trkpt>
      <trkpt lat="46.2226" lon="6.71914">
        <ele>1653</ele>
        <time>2013-03-16T12:49:56.948Z</time>
      </trkpt>
      <trkpt lat="46.22274" lon="6.71909">
        <ele>1659</ele>
        <time>2013-03-16T12:50:16.948Z</time>
      </trkpt>
      <trkpt lat="46.22286" lon="6.71897">
        <ele>1664</ele>
        <time>2013-03-16T12:50:32.95Z</time>
      </trkpt>
      <trkpt lat="46.223" lon="6.71892">
        <ele>1663</ele>
        <time>2013-03-16T12:50:50.95Z</time>
      </trkpt>
      <trkpt lat="46.22313" lon="6.71888">
        <ele>1662</ele>
        <time>2013-03-16T12:51:04.949Z</time>
      </trkpt>
      <trkpt lat="46.22336" lon="6.71879">
        <ele>1672</ele>
        <time>2013-03-16T12:51:36.945Z</time>
      </trkpt>
      <trkpt lat="46.22373" lon="6.71848">
        <ele>1669</ele>
        <time>2013-03-16T12:52:36.945Z</time>
      </trkpt>
      <trkpt lat="46.224" lon="6.71843">
        <ele>1673</ele>
        <time>2013-03-16T12:53:12.945Z</time>
      </trkpt>
      <trkpt lat="46.22414" lon="6.71835">
        <ele>1672</ele>
        <time>2013-03-16T12:53:28.945Z</time>
      </trkpt>
      <trkpt lat="46.22428" lon="6.71826">
        <ele>1678</ele>
        <time>2013-03-16T12:53:56.945Z</time>
      </trkpt>
      <trkpt lat="46.22447" lon="6.71819">
        <ele>1670</ele>
        <time>2013-03-16T12:54:11.948Z</time>
      </trkpt>
      <trkpt lat="46.22459" lon="6.71809">
        <ele>1676</ele>
        <time>2013-03-16T12:54:31.948Z</time>
      </trkpt>
      <trkpt lat="46.2247" lon="6.71797">
        <ele>1698</ele>
        <time>2013-03-16T12:54:57.945Z</time>
      </trkpt>
      <trkpt lat="46.22484" lon="6.71799">
        <ele>1709</ele>
        <time>2013-03-16T12:55:28.946Z</time>
      </trkpt>
      <trkpt lat="46.22507" lon="6.71799">
        <ele>1729</ele>
        <time>2013-03-16T12:56:16.949Z</time>
      </trkpt>
      <trkpt lat="46.22547" lon="6.71764">
        <ele>1730</ele>
        <time>2013-03-16T12:57:07.948Z</time>
      </trkpt>
      <trkpt lat="46.22577" lon="6.71721">
        <ele>1746</ele>
        <time>2013-03-16T12:58:07.95Z</time>
      </trkpt>
      <trkpt lat="46.2261" lon="6.71715">
        <ele>1760</ele>
        <time>2013-03-16T12:59:42.945Z</time>
      </trkpt>
      <trkpt lat="46.22615" lon="6.71671">
        <ele>1775</ele>
        <time>2013-03-16T13:00:42.965Z</time>
      </trkpt>
      <trkpt lat="46.22643" lon="6.71665">
        <ele>1781</ele>
        <time>2013-03-16T13:02:03.946Z</time>
      </trkpt>
      <trkpt lat="46.22654" lon="6.71622">
        <ele>1801</ele>
        <time>2013-03-16T13:03:03.95Z</time>
      </trkpt>
      <trkpt lat="46.22679" lon="6.7158">
        <ele>1815</ele>
        <time>2013-03-16T13:04:00.949Z</time>
      </trkpt>
      <trkpt lat="46.22679" lon="6.71559">
        <ele>1810</ele>
        <time>2013-03-16T13:04:14.95Z</time>
      </trkpt>
      <trkpt lat="46.22727" lon="6.71491">
        <ele>1807</ele>
        <time>2013-03-16T13:05:17.95Z</time>
      </trkpt>
      <trkpt lat="46.22755" lon="6.71436">
        <ele>1805</ele>
        <time>2013-03-16T13:06:09.95Z</time>
      </trkpt>
      <trkpt lat="46.22785" lon="6.71418">
        <ele>1827</ele>
        <time>2013-03-16T13:07:09.95Z</time>
      </trkpt>
      <trkpt lat="46.22832" lon="6.71407">
        <ele>1844</ele>
        <time>2013-03-16T13:08:13.949Z</time>
      </trkpt>
      <trkpt lat="46.22864" lon="6.71356">
        <ele>1848</ele>
        <time>2013-03-16T13:09:08.95Z</time>
      </trkpt>
      <trkpt lat="46.22869" lon="6.71338">
        <ele>1847</ele>
        <time>2013-03-16T13:09:22.949Z</time>
      </trkpt>
      <trkpt lat="46.22875" lon="6.71304">
        <ele>1845</ele>
        <time>2013-03-16T13:09:42.948Z</time>
      </trkpt>
      <trkpt lat="46.22871" lon="6.71279">
        <ele>1843</ele>
        <time>2013-03-16T13:09:47.948Z</time>
      </trkpt>
      <trkpt lat="46.22874" lon="6.7126">
        <ele>1838</ele>
        <time>2013-03-16T13:10:01.948Z</time>
      </trkpt>
      <trkpt lat="46.2289" lon="6.71258">
        <ele>1845</ele>
        <time>2013-03-16T13:10:20.95Z</time>
      </trkpt>
      <trkpt lat="46.22926" lon="6.71217">
        <ele>1845</ele>
        <time>2013-03-16T13:11:11.95Z</time>
      </trkpt>
      <trkpt lat="46.22943" lon="6.712">
        <ele>1854</ele>
        <time>2013-03-16T13:11:39.951Z</time>
      </trkpt>
      <trkpt lat="46.22964" lon="6.71196">
        <ele>1868</ele>
        <time>2013-03-16T13:12:24.95Z</time>
      </trkpt>
      <trkpt lat="46.2299" lon="6.71221">
        <ele>1895</ele>
        <time>2013-03-16T13:13:24.955Z</time>
      </trkpt>
      <trkpt lat="46.23035" lon="6.71227">
        <ele>1911</ele>
        <time>2013-03-16T13:14:36.955Z</time>
      </trkpt>
      <trkpt lat="46.23068" lon="6.71255">
        <ele>1919</ele>
        <time>2013-03-16T13:15:37.954Z</time>
      </trkpt>
      <trkpt lat="46.23104" lon="6.71258">
        <ele>1936</ele>
        <time>2013-03-16T13:16:51.955Z</time>
      </trkpt>
      <trkpt lat="46.23132" lon="6.71206">
        <ele>1945</ele>
        <time>2013-03-16T13:17:50.96Z</time>
      </trkpt>
      <trkpt lat="46.23152" lon="6.71161">
        <ele>1961</ele>
        <time>2013-03-16T13:18:50.971Z</time>
      </trkpt>
      <trkpt lat="46.23193" lon="6.71133">
        <ele>1968</ele>
        <time>2013-03-16T13:19:58.961Z</time>
      </trkpt>
      <trkpt lat="46.23226" lon="6.71142">
        <ele>1984</ele>
        <time>2013-03-16T13:20:58.98Z</time>
      </trkpt>
      <trkpt lat="46.23251" lon="6.71134">
        <ele>2000</ele>
        <time>2013-03-16T13:22:59.966Z</time>
      </trkpt>
      <trkpt lat="46.23251" lon="6.71132">
        <ele>2002</ele>
        <time>2013-03-16T13:24:59.973Z</time>
      </trkpt>
      <trkpt lat="46.23268" lon="6.71071">
        <ele>2016</ele>
        <time>2013-03-16T13:26:40.968Z</time>
      </trkpt>
      <trkpt lat="46.23296" lon="6.71025">
        <ele>2034</ele>
        <time>2013-03-16T13:27:40.971Z</time>
      </trkpt>
      <trkpt lat="46.23316" lon="6.70967">
        <ele>2053</ele>
        <time>2013-03-16T13:28:51.97Z</time>
      </trkpt>
      <trkpt lat="46.23325" lon="6.70952">
        <ele>2049</ele>
        <time>2013-03-16T13:29:07.97Z</time>
      </trkpt>
      <trkpt lat="46.2334" lon="6.70948">
        <ele>2058</ele>
        <time>2013-03-16T13:30:07.975Z</time>
      </trkpt>
      <trkpt lat="46.23352" lon="6.70937">
        <ele>2061</ele>
        <time>2013-03-16T13:30:22.973Z</time>
      </trkpt>
      <trkpt lat="46.23376" lon="6.70934">
        <ele>2070</ele>
        <time>2013-03-16T13:31:22.98Z</time>
      </trkpt>
      <trkpt lat="46.23391" lon="6.70939">
        <ele>2064</ele>
        <time>2013-03-16T13:31:38.98Z</time>
      </trkpt>
      <trkpt lat="46.23409" lon="6.70903">
        <ele>2075</ele>
        <time>2013-03-16T13:32:13.965Z</time>
      </trkpt>
      <trkpt lat="46.23448" lon="6.70859">
        <ele>2094</ele>
        <time>2013-03-16T13:33:12.969Z</time>
      </trkpt>
      <trkpt lat="46.23484" lon="6.70812">
        <ele>2106</ele>
        <time>2013-03-16T13:34:12.964Z</time>
      </trkpt>
      <trkpt lat="46.23517" lon="6.7077">
        <ele>2108</ele>
        <time>2013-03-16T13:35:12.965Z</time>
      </trkpt>
      <trkpt lat="46.23526" lon="6.70752">
        <ele>2113</ele>
        <time>2013-03-16T13:35:24.965Z</time>
      </trkpt>
      <trkpt lat="46.23536" lon="6.70731">
        <ele>2118</ele>
        <time>2013-03-16T13:35:46.965Z</time>
      </trkpt>
      <trkpt lat="46.23546" lon="6.70714">
        <ele>2123</ele>
        <time>2013-03-16T13:36:03.975Z</time>
      </trkpt>
      <trkpt lat="46.23563" lon="6.70643">
        <ele>2134</ele>
        <time>2013-03-16T13:37:02.965Z</time>
      </trkpt>
      <trkpt lat="46.2357" lon="6.7058">
        <ele>2142</ele>
        <time>2013-03-16T13:38:02.98Z</time>
      </trkpt>
      <trkpt lat="46.23598" lon="6.70529">
        <ele>2152</ele>
        <time>2013-03-16T13:38:57.968Z</time>
      </trkpt>
      <trkpt lat="46.23611" lon="6.70518">
        <ele>2153</ele>
        <time>2013-03-16T13:39:12.97Z</time>
      </trkpt>
      <trkpt lat="46.23614" lon="6.70515">
        <ele>2156</ele>
        <time>2013-03-16T13:40:13.038Z</time>
      </trkpt>
      <trkpt lat="46.23613" lon="6.70516">
        <ele>2156</ele>
        <time>2013-03-16T13:42:13.964Z</time>
      </trkpt>
      <trkpt lat="46.23612" lon="6.70517">
        <ele>2157</ele>
        <time>2013-03-16T13:44:13.969Z</time>
      </trkpt>
      <trkpt lat="46.23611" lon="6.70517">
        <ele>2157</ele>
        <time>2013-03-16T13:46:13.97Z</time>
      </trkpt>
      <trkpt lat="46.23611" lon="6.70518">
        <ele>2152</ele>
        <time>2013-03-16T13:48:14.96Z</time>
      </trkpt>
      <trkpt lat="46.23611" lon="6.70516">
        <ele>2155</ele>
        <time>2013-03-16T13:50:14.96Z</time>
      </trkpt>
      <trkpt lat="46.23617" lon="6.7051">
        <ele>2160</ele>
        <time>2013-03-16T13:52:15.958Z</time>
      </trkpt>
      <trkpt lat="46.23611" lon="6.70526">
        <ele>2159</ele>
        <time>2013-03-16T13:54:16.949Z</time>
      </trkpt>
      <trkpt lat="46.23605" lon="6.7055">
        <ele>2161</ele>
        <time>2013-03-16T13:55:56.953Z</time>
      </trkpt>
      <trkpt lat="46.23591" lon="6.70598">
        <ele>2148</ele>
        <time>2013-03-16T13:56:52.951Z</time>
      </trkpt>
      <trkpt lat="46.23598" lon="6.70621">
        <ele>2136</ele>
        <time>2013-03-16T13:57:04.94Z</time>
      </trkpt>
      <trkpt lat="46.23596" lon="6.70645">
        <ele>2126</ele>
        <time>2013-03-16T13:57:12.945Z</time>
      </trkpt>
      <trkpt lat="46.23602" lon="6.70664">
        <ele>2114</ele>
        <time>2013-03-16T13:57:24.931Z</time>
      </trkpt>
      <trkpt lat="46.23606" lon="6.70683">
        <ele>2101</ele>
        <time>2013-03-16T13:57:40.955Z</time>
      </trkpt>
      <trkpt lat="46.23619" lon="6.70676">
        <ele>2085</ele>
        <time>2013-03-16T13:57:56.954Z</time>
      </trkpt>
      <trkpt lat="46.23636" lon="6.70679">
        <ele>2063</ele>
        <time>2013-03-16T13:58:56.961Z</time>
      </trkpt>
      <trkpt lat="46.23627" lon="6.70694">
        <ele>2056</ele>
        <time>2013-03-16T14:00:15.538Z</time>
      </trkpt>
      <trkpt lat="46.23629" lon="6.70717">
        <ele>2052</ele>
        <time>2013-03-16T14:00:21.54Z</time>
      </trkpt>
      <trkpt lat="46.23638" lon="6.70712">
        <ele>2031</ele>
        <time>2013-03-16T14:01:21.54Z</time>
      </trkpt>
      <trkpt lat="46.2364" lon="6.70715">
        <ele>2033</ele>
        <time>2013-03-16T14:03:22.526Z</time>
      </trkpt>
      <trkpt lat="46.23649" lon="6.70738">
        <ele>2029</ele>
        <time>2013-03-16T14:04:27.52Z</time>
      </trkpt>
      <trkpt lat="46.23659" lon="6.7078">
        <ele>2017</ele>
        <time>2013-03-16T14:04:45.52Z</time>
      </trkpt>
      <trkpt lat="46.23721" lon="6.70862">
        <ele>1977</ele>
        <time>2013-03-16T14:05:07.518Z</time>
      </trkpt>
      <trkpt lat="46.23738" lon="6.70866">
        <ele>1959</ele>
        <time>2013-03-16T14:05:44.521Z</time>
      </trkpt>
      <trkpt lat="46.23749" lon="6.70893">
        <ele>1951</ele>
        <time>2013-03-16T14:05:47.515Z</time>
      </trkpt>
      <trkpt lat="46.23778" lon="6.70925">
        <ele>1946</ele>
        <time>2013-03-16T14:05:51.504Z</time>
      </trkpt>
      <trkpt lat="46.23796" lon="6.70943">
        <ele>1943</ele>
        <time>2013-03-16T14:05:53.51Z</time>
      </trkpt>
      <trkpt lat="46.23802" lon="6.70969">
        <ele>1937</ele>
        <time>2013-03-16T14:05:55.513Z</time>
      </trkpt>
      <trkpt lat="46.23812" lon="6.7102">
        <ele>1919</ele>
        <time>2013-03-16T14:06:03.545Z</time>
      </trkpt>
      <trkpt lat="46.23829" lon="6.71028">
        <ele>1891</ele>
        <time>2013-03-16T14:06:33.545Z</time>
      </trkpt>
      <trkpt lat="46.23848" lon="6.71041">
        <ele>1883</ele>
        <time>2013-03-16T14:07:09.528Z</time>
      </trkpt>
      <trkpt lat="46.23868" lon="6.7106">
        <ele>1884</ele>
        <time>2013-03-16T14:07:33.541Z</time>
      </trkpt>
      <trkpt lat="46.23939" lon="6.71152">
        <ele>1869</ele>
        <time>2013-03-16T14:07:58.84Z</time>
      </trkpt>
      <trkpt lat="46.23935" lon="6.71175">
        <ele>1871</ele>
        <time>2013-03-16T14:08:27.831Z</time>
      </trkpt>
      <trkpt lat="46.2393" lon="6.71203">
        <ele>1867</ele>
        <time>2013-03-16T14:08:30.846Z</time>
      </trkpt>
      <trkpt lat="46.2393" lon="6.71224">
        <ele>1864</ele>
        <time>2013-03-16T14:08:32.838Z</time>
      </trkpt>
      <trkpt lat="46.23946" lon="6.71242">
        <ele>1858</ele>
        <time>2013-03-16T14:08:36.836Z</time>
      </trkpt>
      <trkpt lat="46.23959" lon="6.71274">
        <ele>1855</ele>
        <time>2013-03-16T14:08:39.835Z</time>
      </trkpt>
      <trkpt lat="46.23966" lon="6.71326">
        <ele>1850</ele>
        <time>2013-03-16T14:08:43.838Z</time>
      </trkpt>
      <trkpt lat="46.23951" lon="6.7133">
        <ele>1832</ele>
        <time>2013-03-16T14:09:26.835Z</time>
      </trkpt>
      <trkpt lat="46.23931" lon="6.71338">
        <ele>1831</ele>
        <time>2013-03-16T14:09:29.838Z</time>
      </trkpt>
      <trkpt lat="46.23933" lon="6.71364">
        <ele>1825</ele>
        <time>2013-03-16T14:09:33.84Z</time>
      </trkpt>
      <trkpt lat="46.23926" lon="6.71389">
        <ele>1822</ele>
        <time>2013-03-16T14:09:37.833Z</time>
      </trkpt>
      <trkpt lat="46.23921" lon="6.71415">
        <ele>1818</ele>
        <time>2013-03-16T14:09:39.83Z</time>
      </trkpt>
      <trkpt lat="46.23921" lon="6.7144">
        <ele>1813</ele>
        <time>2013-03-16T14:09:41.828Z</time>
      </trkpt>
      <trkpt lat="46.23916" lon="6.71486">
        <ele>1807</ele>
        <time>2013-03-16T14:09:45.849Z</time>
      </trkpt>
      <trkpt lat="46.23901" lon="6.71554">
        <ele>1799</ele>
        <time>2013-03-16T14:09:51.846Z</time>
      </trkpt>
      <trkpt lat="46.23906" lon="6.71582">
        <ele>1796</ele>
        <time>2013-03-16T14:09:53.848Z</time>
      </trkpt>
      <trkpt lat="46.23923" lon="6.71671">
        <ele>1777</ele>
        <time>2013-03-16T14:10:00.835Z</time>
      </trkpt>
      <trkpt lat="46.23926" lon="6.71693">
        <ele>1730</ele>
        <time>2013-03-16T14:10:25.844Z</time>
      </trkpt>
      <trkpt lat="46.23922" lon="6.71722">
        <ele>1726</ele>
        <time>2013-03-16T14:10:28.835Z</time>
      </trkpt>
      <trkpt lat="46.2391" lon="6.71773">
        <ele>1720</ele>
        <time>2013-03-16T14:10:32.838Z</time>
      </trkpt>
      <trkpt lat="46.2388" lon="6.71862">
        <ele>1706</ele>
        <time>2013-03-16T14:10:41.838Z</time>
      </trkpt>
      <trkpt lat="46.23883" lon="6.71855">
        <ele>1693</ele>
        <time>2013-03-16T14:11:41.845Z</time>
      </trkpt>
      <trkpt lat="46.23886" lon="6.71858">
        <ele>1688</ele>
        <time>2013-03-16T14:13:42.845Z</time>
      </trkpt>
      <trkpt lat="46.23884" lon="6.71856">
        <ele>1689</ele>
        <time>2013-03-16T14:15:43.841Z</time>
      </trkpt>
      <trkpt lat="46.23857" lon="6.71866">
        <ele>1673</ele>
        <time>2013-03-16T14:17:11.85Z</time>
      </trkpt>
      <trkpt lat="46.23834" lon="6.71874">
        <ele>1679</ele>
        <time>2013-03-16T14:17:39.845Z</time>
      </trkpt>
      <trkpt lat="46.2382" lon="6.71882">
        <ele>1686</ele>
        <time>2013-03-16T14:17:53.845Z</time>
      </trkpt>
      <trkpt lat="46.23786" lon="6.71839">
        <ele>1691</ele>
        <time>2013-03-16T14:18:50.844Z</time>
      </trkpt>
      <trkpt lat="46.23763" lon="6.71871">
        <ele>1708</ele>
        <time>2013-03-16T14:19:50.845Z</time>
      </trkpt>
      <trkpt lat="46.23752" lon="6.71883">
        <ele>1716</ele>
        <time>2013-03-16T14:20:20.836Z</time>
      </trkpt>
      <trkpt lat="46.2374" lon="6.71872">
        <ele>1725</ele>
        <time>2013-03-16T14:21:20.844Z</time>
      </trkpt>
      <trkpt lat="46.23742" lon="6.71939">
        <ele>1737</ele>
        <time>2013-03-16T14:22:17.409Z</time>
      </trkpt>
      <trkpt lat="46.2373" lon="6.7195">
        <ele>1733</ele>
        <time>2013-03-16T14:22:28.419Z</time>
      </trkpt>
      <trkpt lat="46.23732" lon="6.71969">
        <ele>1740</ele>
        <time>2013-03-16T14:22:44.418Z</time>
      </trkpt>
      <trkpt lat="46.23723" lon="6.71996">
        <ele>1742</ele>
        <time>2013-03-16T14:23:16.414Z</time>
      </trkpt>
      <trkpt lat="46.23701" lon="6.72001">
        <ele>1746</ele>
        <time>2013-03-16T14:23:41.41Z</time>
      </trkpt>
      <trkpt lat="46.2369" lon="6.72032">
        <ele>1769</ele>
        <time>2013-03-16T14:24:42.41Z</time>
      </trkpt>
      <trkpt lat="46.23662" lon="6.72063">
        <ele>1806</ele>
        <time>2013-03-16T14:26:42.729Z</time>
      </trkpt>
      <trkpt lat="46.23661" lon="6.72132">
        <ele>1815</ele>
        <time>2013-03-16T14:27:42.743Z</time>
      </trkpt>
      <trkpt lat="46.23655" lon="6.72198">
        <ele>1815</ele>
        <time>2013-03-16T14:28:34.784Z</time>
      </trkpt>
      <trkpt lat="46.23629" lon="6.72245">
        <ele>1829</ele>
        <time>2013-03-16T14:29:35.724Z</time>
      </trkpt>
      <trkpt lat="46.23599" lon="6.72293">
        <ele>1853</ele>
        <time>2013-03-16T14:30:44.744Z</time>
      </trkpt>
      <trkpt lat="46.23599" lon="6.72321">
        <ele>1864</ele>
        <time>2013-03-16T14:31:45.321Z</time>
      </trkpt>
      <trkpt lat="46.23628" lon="6.72324">
        <ele>1885</ele>
        <time>2013-03-16T14:32:40.309Z</time>
      </trkpt>
      <trkpt lat="46.23665" lon="6.72314">
        <ele>1899</ele>
        <time>2013-03-16T14:33:40.715Z</time>
      </trkpt>
      <trkpt lat="46.23688" lon="6.72351">
        <ele>1910</ele>
        <time>2013-03-16T14:35:41.238Z</time>
      </trkpt>
      <trkpt lat="46.23686" lon="6.72354">
        <ele>1912</ele>
        <time>2013-03-16T14:37:41.253Z</time>
      </trkpt>
      <trkpt lat="46.23685" lon="6.72355">
        <ele>1916</ele>
        <time>2013-03-16T14:39:42.243Z</time>
      </trkpt>
      <trkpt lat="46.23691" lon="6.7235">
        <ele>1910</ele>
        <time>2013-03-16T14:41:43.23Z</time>
      </trkpt>
      <trkpt lat="46.23672" lon="6.72364">
        <ele>1909</ele>
        <time>2013-03-16T14:43:41.254Z</time>
      </trkpt>
      <trkpt lat="46.23637" lon="6.72397">
        <ele>1891</ele>
        <time>2013-03-16T14:44:42.233Z</time>
      </trkpt>
      <trkpt lat="46.23634" lon="6.72416">
        <ele>1886</ele>
        <time>2013-03-16T14:45:11.256Z</time>
      </trkpt>
      <trkpt lat="46.23617" lon="6.72448">
        <ele>1886</ele>
        <time>2013-03-16T14:45:33.26Z</time>
      </trkpt>
      <trkpt lat="46.23603" lon="6.72505">
        <ele>1880</ele>
        <time>2013-03-16T14:46:33.264Z</time>
      </trkpt>
      <trkpt lat="46.23592" lon="6.72557">
        <ele>1879</ele>
        <time>2013-03-16T14:47:14.235Z</time>
      </trkpt>
      <trkpt lat="46.23584" lon="6.72621">
        <ele>1874</ele>
        <time>2013-03-16T14:48:14.256Z</time>
      </trkpt>
      <trkpt lat="46.23591" lon="6.72653">
        <ele>1882</ele>
        <time>2013-03-16T14:48:40.259Z</time>
      </trkpt>
      <trkpt lat="46.23589" lon="6.72673">
        <ele>1879</ele>
        <time>2013-03-16T14:48:53.254Z</time>
      </trkpt>
      <trkpt lat="46.23584" lon="6.72721">
        <ele>1882</ele>
        <time>2013-03-16T14:49:14.25Z</time>
      </trkpt>
      <trkpt lat="46.23588" lon="6.72741">
        <ele>1871</ele>
        <time>2013-03-16T14:49:37.26Z</time>
      </trkpt>
      <trkpt lat="46.2358" lon="6.7276">
        <ele>1868</ele>
        <time>2013-03-16T14:49:51.258Z</time>
      </trkpt>
      <trkpt lat="46.2359" lon="6.72775">
        <ele>1867</ele>
        <time>2013-03-16T14:49:59.261Z</time>
      </trkpt>
      <trkpt lat="46.23583" lon="6.72793">
        <ele>1862</ele>
        <time>2013-03-16T14:50:11.259Z</time>
      </trkpt>
      <trkpt lat="46.23588" lon="6.72811">
        <ele>1862</ele>
        <time>2013-03-16T14:50:24.328Z</time>
      </trkpt>
      <trkpt lat="46.2359" lon="6.72832">
        <ele>1863</ele>
        <time>2013-03-16T14:50:40.27Z</time>
      </trkpt>
      <trkpt lat="46.23593" lon="6.72855">
        <ele>1864</ele>
        <time>2013-03-16T14:50:58.268Z</time>
      </trkpt>
      <trkpt lat="46.23602" lon="6.72873">
        <ele>1864</ele>
        <time>2013-03-16T14:51:07.475Z</time>
      </trkpt>
      <trkpt lat="46.23601" lon="6.72896">
        <ele>1864</ele>
        <time>2013-03-16T14:51:19.481Z</time>
      </trkpt>
      <trkpt lat="46.23611" lon="6.72922">
        <ele>1859</ele>
        <time>2013-03-16T14:51:36.49Z</time>
      </trkpt>
      <trkpt lat="46.23643" lon="6.72972">
        <ele>1865</ele>
        <time>2013-03-16T14:52:25.49Z</time>
      </trkpt>
      <trkpt lat="46.23675" lon="6.7302">
        <ele>1876</ele>
        <time>2013-03-16T14:53:19.504Z</time>
      </trkpt>
      <trkpt lat="46.23687" lon="6.73032">
        <ele>1875</ele>
        <time>2013-03-16T14:53:33.495Z</time>
      </trkpt>
      <trkpt lat="46.23726" lon="6.73067">
        <ele>1891</ele>
        <time>2013-03-16T14:54:29.496Z</time>
      </trkpt>
      <trkpt lat="46.23732" lon="6.73074">
        <ele>1897</ele>
        <time>2013-03-16T14:55:30.491Z</time>
      </trkpt>
      <trkpt lat="46.23738" lon="6.73075">
        <ele>1902</ele>
        <time>2013-03-16T14:57:30.834Z</time>
      </trkpt>
      <trkpt lat="46.23738" lon="6.73075">
        <ele>1902</ele>
        <time>2013-03-16T14:59:30.849Z</time>
      </trkpt>
      <trkpt lat="46.23738" lon="6.73075">
        <ele>1902</ele>
        <time>2013-03-16T15:01:30.858Z</time>
      </trkpt>
      <trkpt lat="46.23696" lon="6.73058">
        <ele>1892</ele>
        <time>2013-03-16T15:03:31.85Z</time>
      </trkpt>
      <trkpt lat="46.23682" lon="6.73058">
        <ele>1882</ele>
        <time>2013-03-16T15:03:41.85Z</time>
      </trkpt>
      <trkpt lat="46.23663" lon="6.7305">
        <ele>1866</ele>
        <time>2013-03-16T15:04:41.858Z</time>
      </trkpt>
      <trkpt lat="46.23632" lon="6.73061">
        <ele>1857</ele>
        <time>2013-03-16T15:05:08.869Z</time>
      </trkpt>
      <trkpt lat="46.23617" lon="6.73056">
        <ele>1868</ele>
        <time>2013-03-16T15:06:05.883Z</time>
      </trkpt>
      <trkpt lat="46.23632" lon="6.73035">
        <ele>1889</ele>
        <time>2013-03-16T15:07:06.88Z</time>
      </trkpt>
      <trkpt lat="46.23647" lon="6.73031">
        <ele>1910</ele>
        <time>2013-03-16T15:08:38.854Z</time>
      </trkpt>
      <trkpt lat="46.23611" lon="6.7303">
        <ele>1898</ele>
        <time>2013-03-16T15:09:27.824Z</time>
      </trkpt>
      <trkpt lat="46.23613" lon="6.73022">
        <ele>1899</ele>
        <time>2013-03-16T15:10:27.86Z</time>
      </trkpt>
      <trkpt lat="46.23603" lon="6.72986">
        <ele>1903</ele>
        <time>2013-03-16T15:11:14.853Z</time>
      </trkpt>
      <trkpt lat="46.23578" lon="6.72969">
        <ele>1900</ele>
        <time>2013-03-16T15:12:14.883Z</time>
      </trkpt>
      <trkpt lat="46.23578" lon="6.72968">
        <ele>1899</ele>
        <time>2013-03-16T15:14:15.865Z</time>
      </trkpt>
      <trkpt lat="46.23589" lon="6.72981">
        <ele>1926</ele>
        <time>2013-03-16T15:16:15.875Z</time>
      </trkpt>
      <trkpt lat="46.23601" lon="6.72972">
        <ele>1931</ele>
        <time>2013-03-16T15:18:16.441Z</time>
      </trkpt>
      <trkpt lat="46.2361" lon="6.72973">
        <ele>1933</ele>
        <time>2013-03-16T15:20:16.441Z</time>
      </trkpt>
      <trkpt lat="46.23605" lon="6.72973">
        <ele>1930</ele>
        <time>2013-03-16T15:22:16.813Z</time>
      </trkpt>
      <trkpt lat="46.23609" lon="6.72992">
        <ele>1930</ele>
        <time>2013-03-16T15:22:52.8Z</time>
      </trkpt>
      <trkpt lat="46.23624" lon="6.72996">
        <ele>1927</ele>
        <time>2013-03-16T15:22:54.8Z</time>
      </trkpt>
      <trkpt lat="46.23616" lon="6.73017">
        <ele>1916</ele>
        <time>2013-03-16T15:23:04.849Z</time>
      </trkpt>
      <trkpt lat="46.23613" lon="6.7298">
        <ele>1906</ele>
        <time>2013-03-16T15:23:08.846Z</time>
      </trkpt>
      <trkpt lat="46.23581" lon="6.72891">
        <ele>1903</ele>
        <time>2013-03-16T15:23:11.81Z</time>
      </trkpt>
      <trkpt lat="46.23617" lon="6.72965">
        <ele>1892</ele>
        <time>2013-03-16T15:23:12.809Z</time>
      </trkpt>
      <trkpt lat="46.23625" lon="6.73015">
        <ele>1888</ele>
        <time>2013-03-16T15:23:16.818Z</time>
      </trkpt>
      <trkpt lat="46.23636" lon="6.73044">
        <ele>1885</ele>
        <time>2013-03-16T15:23:21.81Z</time>
      </trkpt>
      <trkpt lat="46.23624" lon="6.73054">
        <ele>1883</ele>
        <time>2013-03-16T15:23:25.799Z</time>
      </trkpt>
      <trkpt lat="46.23609" lon="6.73054">
        <ele>1885</ele>
        <time>2013-03-16T15:23:32.8Z</time>
      </trkpt>
      <trkpt lat="46.23594" lon="6.73062">
        <ele>1884</ele>
        <time>2013-03-16T15:23:41.8Z</time>
      </trkpt>
      <trkpt lat="46.23568" lon="6.73068">
        <ele>1887</ele>
        <time>2013-03-16T15:23:47.828Z</time>
      </trkpt>
      <trkpt lat="46.23573" lon="6.73088">
        <ele>1883</ele>
        <time>2013-03-16T15:24:03.806Z</time>
      </trkpt>
      <trkpt lat="46.23576" lon="6.73114">
        <ele>1882</ele>
        <time>2013-03-16T15:24:07.8Z</time>
      </trkpt>
      <trkpt lat="46.23586" lon="6.73142">
        <ele>1881</ele>
        <time>2013-03-16T15:24:11.804Z</time>
      </trkpt>
      <trkpt lat="46.23567" lon="6.73123">
        <ele>1881</ele>
        <time>2013-03-16T15:25:12.796Z</time>
      </trkpt>
      <trkpt lat="46.23587" lon="6.73128">
        <ele>1878</ele>
        <time>2013-03-16T15:26:26.814Z</time>
      </trkpt>
      <trkpt lat="46.23606" lon="6.7314">
        <ele>1876</ele>
        <time>2013-03-16T15:26:29.836Z</time>
      </trkpt>
      <trkpt lat="46.23618" lon="6.73165">
        <ele>1873</ele>
        <time>2013-03-16T15:26:32.83Z</time>
      </trkpt>
      <trkpt lat="46.2361" lon="6.73187">
        <ele>1853</ele>
        <time>2013-03-16T15:26:35.808Z</time>
      </trkpt>
      <trkpt lat="46.23603" lon="6.73208">
        <ele>1834</ele>
        <time>2013-03-16T15:26:41.806Z</time>
      </trkpt>
      <trkpt lat="46.23599" lon="6.73207">
        <ele>1832</ele>
        <time>2013-03-16T15:27:41.825Z</time>
      </trkpt>
      <trkpt lat="46.23568" lon="6.73283">
        <ele>1826</ele>
        <time>2013-03-16T15:28:18.81Z</time>
      </trkpt>
      <trkpt lat="46.23549" lon="6.73299">
        <ele>1822</ele>
        <time>2013-03-16T15:28:25.81Z</time>
      </trkpt>
      <trkpt lat="46.23509" lon="6.73348">
        <ele>1811</ele>
        <time>2013-03-16T15:28:43.81Z</time>
      </trkpt>
      <trkpt lat="46.23494" lon="6.73391">
        <ele>1811</ele>
        <time>2013-03-16T15:28:59.77Z</time>
      </trkpt>
      <trkpt lat="46.23491" lon="6.73432">
        <ele>1809</ele>
        <time>2013-03-16T15:29:06.803Z</time>
      </trkpt>
      <trkpt lat="46.23489" lon="6.73453">
        <ele>1808</ele>
        <time>2013-03-16T15:29:08.799Z</time>
      </trkpt>
      <trkpt lat="46.23499" lon="6.73451">
        <ele>1808</ele>
        <time>2013-03-16T15:30:09.796Z</time>
      </trkpt>
      <trkpt lat="46.23488" lon="6.7348">
        <ele>1804</ele>
        <time>2013-03-16T15:30:23.794Z</time>
      </trkpt>
      <trkpt lat="46.23422" lon="6.73512">
        <ele>1770</ele>
        <time>2013-03-16T15:30:30.794Z</time>
      </trkpt>
      <trkpt lat="46.23404" lon="6.73528">
        <ele>1768</ele>
        <time>2013-03-16T15:30:34.794Z</time>
      </trkpt>
      <trkpt lat="46.2339" lon="6.73536">
        <ele>1768</ele>
        <time>2013-03-16T15:30:38.795Z</time>
      </trkpt>
      <trkpt lat="46.23369" lon="6.73579">
        <ele>1773</ele>
        <time>2013-03-16T15:31:11.796Z</time>
      </trkpt>
      <trkpt lat="46.23372" lon="6.73599">
        <ele>1771</ele>
        <time>2013-03-16T15:31:15.798Z</time>
      </trkpt>
      <trkpt lat="46.2336" lon="6.73637">
        <ele>1770</ele>
        <time>2013-03-16T15:31:20.795Z</time>
      </trkpt>
      <trkpt lat="46.23338" lon="6.73665">
        <ele>1767</ele>
        <time>2013-03-16T15:31:24.795Z</time>
      </trkpt>
      <trkpt lat="46.23324" lon="6.7368">
        <ele>1766</ele>
        <time>2013-03-16T15:31:28.795Z</time>
      </trkpt>
      <trkpt lat="46.23306" lon="6.73679">
        <ele>1759</ele>
        <time>2013-03-16T15:31:30.794Z</time>
      </trkpt>
      <trkpt lat="46.23296" lon="6.737">
        <ele>1743</ele>
        <time>2013-03-16T15:32:04.795Z</time>
      </trkpt>
      <trkpt lat="46.23286" lon="6.73742">
        <ele>1741</ele>
        <time>2013-03-16T15:32:10.795Z</time>
      </trkpt>
      <trkpt lat="46.2327" lon="6.73764">
        <ele>1739</ele>
        <time>2013-03-16T15:32:14.795Z</time>
      </trkpt>
      <trkpt lat="46.23241" lon="6.73814">
        <ele>1732</ele>
        <time>2013-03-16T15:32:27.799Z</time>
      </trkpt>
      <trkpt lat="46.23231" lon="6.73798">
        <ele>1731</ele>
        <time>2013-03-16T15:32:42.799Z</time>
      </trkpt>
      <trkpt lat="46.23215" lon="6.73811">
        <ele>1732</ele>
        <time>2013-03-16T15:33:12.793Z</time>
      </trkpt>
      <trkpt lat="46.23214" lon="6.7384">
        <ele>1729</ele>
        <time>2013-03-16T15:33:16.791Z</time>
      </trkpt>
      <trkpt lat="46.2322" lon="6.73865">
        <ele>1728</ele>
        <time>2013-03-16T15:33:19.79Z</time>
      </trkpt>
      <trkpt lat="46.23213" lon="6.73896">
        <ele>1724</ele>
        <time>2013-03-16T15:33:23.79Z</time>
      </trkpt>
      <trkpt lat="46.23175" lon="6.73997">
        <ele>1701</ele>
        <time>2013-03-16T15:33:39.791Z</time>
      </trkpt>
      <trkpt lat="46.23115" lon="6.74072">
        <ele>1654</ele>
        <time>2013-03-16T15:33:55.79Z</time>
      </trkpt>
      <trkpt lat="46.23131" lon="6.74125">
        <ele>1655</ele>
        <time>2013-03-16T15:34:16.795Z</time>
      </trkpt>
      <trkpt lat="46.23135" lon="6.74149">
        <ele>1654</ele>
        <time>2013-03-16T15:34:20.795Z</time>
      </trkpt>
      <trkpt lat="46.23148" lon="6.7424">
        <ele>1650</ele>
        <time>2013-03-16T15:34:35.821Z</time>
      </trkpt>
      <trkpt lat="46.23156" lon="6.74241">
        <ele>1655</ele>
        <time>2013-03-16T15:35:36.781Z</time>
      </trkpt>
      <trkpt lat="46.23143" lon="6.74235">
        <ele>1648</ele>
        <time>2013-03-16T15:37:36.868Z</time>
      </trkpt>
      <trkpt lat="46.23158" lon="6.74235">
        <ele>1639</ele>
        <time>2013-03-16T15:38:31.825Z</time>
      </trkpt>
      <trkpt lat="46.23172" lon="6.74235">
        <ele>1634</ele>
        <time>2013-03-16T15:38:39.844Z</time>
      </trkpt>
      <trkpt lat="46.23184" lon="6.74252">
        <ele>1636</ele>
        <time>2013-03-16T15:38:50.768Z</time>
      </trkpt>
      <trkpt lat="46.232" lon="6.74277">
        <ele>1628</ele>
        <time>2013-03-16T15:39:01.769Z</time>
      </trkpt>
      <trkpt lat="46.23231" lon="6.74291">
        <ele>1622</ele>
        <time>2013-03-16T15:39:17.77Z</time>
      </trkpt>
      <trkpt lat="46.23264" lon="6.74308">
        <ele>1620</ele>
        <time>2013-03-16T15:39:23.795Z</time>
      </trkpt>
      <trkpt lat="46.2328" lon="6.74322">
        <ele>1608</ele>
        <time>2013-03-16T15:40:18.845Z</time>
      </trkpt>
      <trkpt lat="46.23296" lon="6.74364">
        <ele>1593</ele>
        <time>2013-03-16T15:40:26.786Z</time>
      </trkpt>
      <trkpt lat="46.23272" lon="6.74373">
        <ele>1579</ele>
        <time>2013-03-16T15:41:18.791Z</time>
      </trkpt>
      <trkpt lat="46.23295" lon="6.74408">
        <ele>1572</ele>
        <time>2013-03-16T15:41:25.79Z</time>
      </trkpt>
      <trkpt lat="46.23318" lon="6.74459">
        <ele>1565</ele>
        <time>2013-03-16T15:41:31.809Z</time>
      </trkpt>
      <trkpt lat="46.23326" lon="6.74484">
        <ele>1562</ele>
        <time>2013-03-16T15:41:34.801Z</time>
      </trkpt>
      <trkpt lat="46.23341" lon="6.74505">
        <ele>1559</ele>
        <time>2013-03-16T15:41:38.8Z</time>
      </trkpt>
      <trkpt lat="46.23363" lon="6.74506">
        <ele>1557</ele>
        <time>2013-03-16T15:41:41.796Z</time>
      </trkpt>
      <trkpt lat="46.23378" lon="6.74515">
        <ele>1555</ele>
        <time>2013-03-16T15:41:43.8Z</time>
      </trkpt>
      <trkpt lat="46.23403" lon="6.74525">
        <ele>1537</ele>
        <time>2013-03-16T15:42:27.805Z</time>
      </trkpt>
      <trkpt lat="46.23393" lon="6.7454">
        <ele>1521</ele>
        <time>2013-03-16T15:42:35.8Z</time>
      </trkpt>
      <trkpt lat="46.23402" lon="6.74556">
        <ele>1513</ele>
        <time>2013-03-16T15:42:41.799Z</time>
      </trkpt>
      <trkpt lat="46.23421" lon="6.74565">
        <ele>1509</ele>
        <time>2013-03-16T15:42:47.799Z</time>
      </trkpt>
      <trkpt lat="46.23447" lon="6.74578">
        <ele>1503</ele>
        <time>2013-03-16T15:42:53.791Z</time>
      </trkpt>
      <trkpt lat="46.23463" lon="6.74592">
        <ele>1496</ele>
        <time>2013-03-16T15:42:57.795Z</time>
      </trkpt>
      <trkpt lat="46.23497" lon="6.74615">
        <ele>1486</ele>
        <time>2013-03-16T15:43:03.785Z</time>
      </trkpt>
      <trkpt lat="46.23511" lon="6.74607">
        <ele>1484</ele>
        <time>2013-03-16T15:43:07.786Z</time>
      </trkpt>
      <trkpt lat="46.23528" lon="6.74608">
        <ele>1473</ele>
        <time>2013-03-16T15:43:39.8Z</time>
      </trkpt>
      <trkpt lat="46.23555" lon="6.74632">
        <ele>1462</ele>
        <time>2013-03-16T15:43:45.799Z</time>
      </trkpt>
      <trkpt lat="46.23561" lon="6.74653">
        <ele>1453</ele>
        <time>2013-03-16T15:43:48.801Z</time>
      </trkpt>
      <trkpt lat="46.23575" lon="6.74661">
        <ele>1448</ele>
        <time>2013-03-16T15:43:51.798Z</time>
      </trkpt>
      <trkpt lat="46.23583" lon="6.74678">
        <ele>1440</ele>
        <time>2013-03-16T15:43:54.805Z</time>
      </trkpt>
      <trkpt lat="46.23632" lon="6.7478">
        <ele>1403</ele>
        <time>2013-03-16T15:44:35.818Z</time>
      </trkpt>
      <trkpt lat="46.23645" lon="6.748">
        <ele>1402</ele>
        <time>2013-03-16T15:44:38.814Z</time>
      </trkpt>
      <trkpt lat="46.23662" lon="6.74812">
        <ele>1402</ele>
        <time>2013-03-16T15:44:41.815Z</time>
      </trkpt>
      <trkpt lat="46.23697" lon="6.74825">
        <ele>1401</ele>
        <time>2013-03-16T15:44:46.815Z</time>
      </trkpt>
      <trkpt lat="46.23745" lon="6.74838">
        <ele>1402</ele>
        <time>2013-03-16T15:44:51.808Z</time>
      </trkpt>
      <trkpt lat="46.23758" lon="6.74852">
        <ele>1402</ele>
        <time>2013-03-16T15:44:55.763Z</time>
      </trkpt>
      <trkpt lat="46.23772" lon="6.74856">
        <ele>1398</ele>
        <time>2013-03-16T15:44:59.77Z</time>
      </trkpt>
      <trkpt lat="46.23764" lon="6.74897">
        <ele>1396</ele>
        <time>2013-03-16T15:45:36.796Z</time>
      </trkpt>
      <trkpt lat="46.23789" lon="6.74896">
        <ele>1395</ele>
        <time>2013-03-16T15:45:40.8Z</time>
      </trkpt>
      <trkpt lat="46.23821" lon="6.74897">
        <ele>1393</ele>
        <time>2013-03-16T15:45:43.823Z</time>
      </trkpt>
      <trkpt lat="46.23861" lon="6.74901">
        <ele>1393</ele>
        <time>2013-03-16T15:46:07.796Z</time>
      </trkpt>
      <trkpt lat="46.23889" lon="6.74867">
        <ele>1390</ele>
        <time>2013-03-16T15:46:13.843Z</time>
      </trkpt>
      <trkpt lat="46.23908" lon="6.74878">
        <ele>1376</ele>
        <time>2013-03-16T15:46:15.84Z</time>
      </trkpt>
      <trkpt lat="46.23933" lon="6.74889">
        <ele>1363</ele>
        <time>2013-03-16T15:46:19.835Z</time>
      </trkpt>
      <trkpt lat="46.23945" lon="6.74911">
        <ele>1357</ele>
        <time>2013-03-16T15:46:21.811Z</time>
      </trkpt>
      <trkpt lat="46.23962" lon="6.74957">
        <ele>1331</ele>
        <time>2013-03-16T15:46:37.815Z</time>
      </trkpt>
      <trkpt lat="46.23965" lon="6.74936">
        <ele>1324</ele>
        <time>2013-03-16T15:46:54.8Z</time>
      </trkpt>
      <trkpt lat="46.23972" lon="6.74918">
        <ele>1314</ele>
        <time>2013-03-16T15:47:01.8Z</time>
      </trkpt>
      <trkpt lat="46.23985" lon="6.7492">
        <ele>1308</ele>
        <time>2013-03-16T15:47:07.799Z</time>
      </trkpt>
      <trkpt lat="46.23998" lon="6.74927">
        <ele>1303</ele>
        <time>2013-03-16T15:47:11.804Z</time>
      </trkpt>
      <trkpt lat="46.2403" lon="6.74943">
        <ele>1296</ele>
        <time>2013-03-16T15:47:18.804Z</time>
      </trkpt>
      <trkpt lat="46.24084" lon="6.74954">
        <ele>1288</ele>
        <time>2013-03-16T15:47:28.805Z</time>
      </trkpt>
      <trkpt lat="46.24137" lon="6.75001">
        <ele>1273</ele>
        <time>2013-03-16T15:47:49.808Z</time>
      </trkpt>
      <trkpt lat="46.24142" lon="6.75021">
        <ele>1271</ele>
        <time>2013-03-16T15:47:55.81Z</time>
      </trkpt>
      <trkpt lat="46.2417" lon="6.75109">
        <ele>1269</ele>
        <time>2013-03-16T15:48:15.81Z</time>
      </trkpt>
      <trkpt lat="46.24196" lon="6.75157">
        <ele>1266</ele>
        <time>2013-03-16T15:48:28.82Z</time>
      </trkpt>
      <trkpt lat="46.24205" lon="6.75194">
        <ele>1266</ele>
        <time>2013-03-16T15:48:39.831Z</time>
      </trkpt>
      <trkpt lat="46.24207" lon="6.75214">
        <ele>1265</ele>
        <time>2013-03-16T15:48:44.834Z</time>
      </trkpt>
      <trkpt lat="46.24216" lon="6.75232">
        <ele>1265</ele>
        <time>2013-03-16T15:48:48.838Z</time>
      </trkpt>
      <trkpt lat="46.24228" lon="6.7525">
        <ele>1268</ele>
        <time>2013-03-16T15:48:54.833Z</time>
      </trkpt>
      <trkpt lat="46.24241" lon="6.75261">
        <ele>1272</ele>
        <time>2013-03-16T15:49:55.816Z</time>
      </trkpt>
      <trkpt lat="46.24231" lon="6.75255">
        <ele>1273</ele>
        <time>2013-03-16T15:51:56.69Z</time>
      </trkpt>
      <trkpt lat="46.24238" lon="6.75275">
        <ele>1269</ele>
        <time>2013-03-16T15:52:19.693Z</time>
      </trkpt>
      <trkpt lat="46.24246" lon="6.75304">
        <ele>1267</ele>
        <time>2013-03-16T15:52:29.689Z</time>
      </trkpt>
      <trkpt lat="46.24258" lon="6.75327">
        <ele>1269</ele>
        <time>2013-03-16T15:52:34.595Z</time>
      </trkpt>
      <trkpt lat="46.24273" lon="6.7534">
        <ele>1270</ele>
        <time>2013-03-16T15:52:37.59Z</time>
      </trkpt>
      <trkpt lat="46.24289" lon="6.75375">
        <ele>1265</ele>
        <time>2013-03-16T15:52:43.6Z</time>
      </trkpt>
      <trkpt lat="46.24314" lon="6.7541">
        <ele>1268</ele>
        <time>2013-03-16T15:52:50.553Z</time>
      </trkpt>
      <trkpt lat="46.2434" lon="6.75464">
        <ele>1262</ele>
        <time>2013-03-16T15:53:10.6Z</time>
      </trkpt>
      <trkpt lat="46.24353" lon="6.75475">
        <ele>1257</ele>
        <time>2013-03-16T15:53:15.6Z</time>
      </trkpt>
      <trkpt lat="46.24368" lon="6.75475">
        <ele>1260</ele>
        <time>2013-03-16T15:53:22.648Z</time>
      </trkpt>
      <trkpt lat="46.24387" lon="6.75466">
        <ele>1259</ele>
        <time>2013-03-16T15:53:30.646Z</time>
      </trkpt>
      <trkpt lat="46.24405" lon="6.75463">
        <ele>1261</ele>
        <time>2013-03-16T15:53:40.616Z</time>
      </trkpt>
      <trkpt lat="46.24416" lon="6.7548">
        <ele>1258</ele>
        <time>2013-03-16T15:53:45.623Z</time>
      </trkpt>
      <trkpt lat="46.24428" lon="6.75503">
        <ele>1257</ele>
        <time>2013-03-16T15:53:48.614Z</time>
      </trkpt>
      <trkpt lat="46.24443" lon="6.75527">
        <ele>1256</ele>
        <time>2013-03-16T15:53:51.615Z</time>
      </trkpt>
      <trkpt lat="46.2446" lon="6.75543">
        <ele>1256</ele>
        <time>2013-03-16T15:53:54.613Z</time>
      </trkpt>
      <trkpt lat="46.2452" lon="6.7557">
        <ele>1252</ele>
        <time>2013-03-16T15:54:04.59Z</time>
      </trkpt>
      <trkpt lat="46.24622" lon="6.75572">
        <ele>1242</ele>
        <time>2013-03-16T15:54:15.596Z</time>
      </trkpt>
      <trkpt lat="46.24651" lon="6.7556">
        <ele>1234</ele>
        <time>2013-03-16T15:54:19.6Z</time>
      </trkpt>
      <trkpt lat="46.24667" lon="6.7555">
        <ele>1231</ele>
        <time>2013-03-16T15:54:21.601Z</time>
      </trkpt>
      <trkpt lat="46.24722" lon="6.75525">
        <ele>1222</ele>
        <time>2013-03-16T15:54:28.6Z</time>
      </trkpt>
      <trkpt lat="46.24776" lon="6.75517">
        <ele>1213</ele>
        <time>2013-03-16T15:54:36.604Z</time>
      </trkpt>
      <trkpt lat="46.24781" lon="6.75515">
        <ele>1202</ele>
        <time>2013-03-16T15:55:37.515Z</time>
      </trkpt>
      <trkpt lat="46.24782" lon="6.75517">
        <ele>1200</ele>
        <time>2013-03-16T15:57:37.594Z</time>
      </trkpt>
      <trkpt lat="46.24786" lon="6.75519">
        <ele>1201</ele>
        <time>2013-03-16T15:59:38.548Z</time>
      </trkpt>
      <trkpt lat="46.24789" lon="6.75523">
        <ele>1199</ele>
        <time>2013-03-16T16:01:38.55Z</time>
      </trkpt>
      <trkpt lat="46.24779" lon="6.75516">
        <ele>1195</ele>
        <time>2013-03-16T16:03:39.545Z</time>
      </trkpt>
      <trkpt lat="46.2478" lon="6.75514">
        <ele>1195</ele>
        <time>2013-03-16T16:05:39.551Z</time>
      </trkpt>
      <trkpt lat="46.24777" lon="6.75515">
        <ele>1197</ele>
        <time>2013-03-16T16:07:39.56Z</time>
      </trkpt>
      <trkpt lat="46.24779" lon="6.75516">
        <ele>1196</ele>
        <time>2013-03-16T16:07:58.569Z</time>
      </trkpt>
    </trkseg>
  </trk>
</gpx>